Time;durP1;ratioP1;P1;durP2;ratioP2;P2;SDS_P1;SDS_P2;PMS_P1;PMS_P2;Temp;Humidity;BMP_temperature;BMP_pressure;BME280_temperature;BME280_humidity;BME280_pressure;Samples;Min_cycle;Max_cycle;Signal;HPM_P1;HPM_P2
2022/12/03 00:02:07;;;;;;;17.23;8.27;;;;;;;;;;4998203;28;20397;-27
2022/12/03 00:04:33;;;;;;;13.50;7.72;;;;;;;;;;4997918;28;20046;-26
2022/12/03 00:06:59;;;;;;;21.63;9.57;;;;;;;;;;4997412;28;20351;-26
2022/12/03 00:09:26;;;;;;;17.55;8.93;;;;;;;;;;4997256;28;20096;-26
2022/12/03 00:11:52;;;;;;;15.98;7.90;;;;;;;;;;4997982;28;20038;-27
2022/12/03 00:14:18;;;;;;;20.52;8.07;;;;;;;;;;4997962;28;20412;-26
2022/12/03 00:16:44;;;;;;;17.10;7.72;;;;;;;;;;4997678;28;20065;-26
2022/12/03 00:19:10;;;;;;;12.27;7.30;;;;;;;;;;4997686;28;20060;-26
2022/12/03 00:21:36;;;;;;;17.50;8.88;;;;;;;;;;4997568;28;20035;-26
2022/12/03 00:24:03;;;;;;;22.92;10.65;;;;;;;;;;4997517;28;20110;-26
2022/12/03 00:26:29;;;;;;;13.75;7.60;;;;;;;;;;4997764;28;20117;-26
2022/12/03 00:28:56;;;;;;;18.38;8.27;;;;;;;;;;4997589;28;20030;-26
2022/12/03 00:31:23;;;;;;;14.07;8.20;;;;;;;;;;4997725;28;20050;-26
2022/12/03 00:33:49;;;;;;;14.32;8.00;;;;;;;;;;4997385;28;20113;-26
2022/12/03 00:36:16;;;;;;;15.82;8.10;;;;;;;;;;4997356;28;20033;-26
2022/12/03 00:38:42;;;;;;;17.80;8.05;;;;;;;;;;4997300;28;20026;-26
2022/12/03 00:41:08;;;;;;;16.48;7.53;;;;;;;;;;4997277;28;20026;-26
2022/12/03 00:43:34;;;;;;;19.45;8.15;;;;;;;;;;4997408;28;20410;-26
2022/12/03 00:46:00;;;;;;;11.05;7.00;;;;;;;;;;4997235;28;20030;-26
2022/12/03 00:48:27;;;;;;;15.20;8.88;;;;;;;;;;4997643;28;20034;-27
2022/12/03 00:50:53;;;;;;;14.73;6.88;;;;;;;;;;4997092;28;20041;-27
2022/12/03 00:53:19;;;;;;;16.95;7.22;;;;;;;;;;4997143;28;20137;-27
2022/12/03 00:55:45;;;;;;;18.13;7.80;;;;;;;;;;4997290;28;20441;-27
2022/12/03 00:58:11;;;;;;;16.08;7.63;;;;;;;;;;4997273;28;20026;-27
2022/12/03 01:00:37;;;;;;;10.80;7.50;;;;;;;;;;4996928;28;20081;-27
2022/12/03 01:03:04;;;;;;;18.38;8.15;;;;;;;;;;4996660;28;20065;-27
2022/12/03 01:05:30;;;;;;;12.35;7.97;;;;;;;;;;4997142;28;20113;-27
2022/12/03 01:07:56;;;;;;;18.35;7.97;;;;;;;;;;4997093;28;20411;-27
2022/12/03 01:10:22;;;;;;;11.80;8.07;;;;;;;;;;4996745;28;20121;-27
2022/12/03 01:12:48;;;;;;;13.75;8.18;;;;;;;;;;4996559;28;20042;-27
2022/12/03 01:15:14;;;;;;;12.50;8.23;;;;;;;;;;4996613;28;20084;-27
2022/12/03 01:17:40;;;;;;;17.83;8.02;;;;;;;;;;4996587;28;20027;-27
2022/12/03 01:20:07;;;;;;;18.23;8.15;;;;;;;;;;4996928;28;20033;-27
2022/12/03 01:22:34;;;;;;;14.30;8.55;;;;;;;;;;4996653;28;20045;-27
2022/12/03 01:25:00;;;;;;;17.20;8.88;;;;;;;;;;4996460;28;20022;-27
2022/12/03 01:27:26;;;;;;;17.35;7.43;;;;;;;;;;4996671;28;20034;-27
2022/12/03 01:29:52;;;;;;;11.73;7.75;;;;;;;;;;4996368;28;20034;-27
2022/12/03 01:32:18;;;;;;;15.27;9.23;;;;;;;;;;4996287;28;20033;-27
2022/12/03 01:34:45;;;;;;;18.15;7.50;;;;;;;;;;4996711;28;20030;-27
2022/12/03 01:37:12;;;;;;;11.93;7.15;;;;;;;;;;4996168;28;20030;-27
2022/12/03 01:39:38;;;;;;;13.93;7.40;;;;;;;;;;4996453;28;20033;-27
2022/12/03 01:42:04;;;;;;;15.45;7.85;;;;;;;;;;4996606;28;20022;-27
2022/12/03 01:44:31;;;;;;;18.35;9.00;;;;;;;;;;4996590;28;20097;-27
2022/12/03 01:46:59;;;;;;;14.13;7.82;;;;;;;;;;4996100;28;20448;-27
2022/12/03 01:49:26;;;;;;;15.48;8.30;;;;;;;;;;4996516;28;20052;-27
2022/12/03 01:51:53;;;;;;;18.52;8.90;;;;;;;;;;4995927;28;20050;-27
2022/12/03 01:54:22;;;;;;;14.32;7.90;;;;;;;;;;4996146;28;20058;-27
2022/12/03 01:56:48;;;;;;;15.57;7.53;;;;;;;;;;4996137;28;20056;-27
2022/12/03 01:59:19;;;;;;;15.27;8.02;;;;;;;;;;4996143;28;20029;-27
2022/12/03 02:01:45;;;;;;;14.18;9.27;;;;;;;;;;4996119;28;20080;-27
2022/12/03 02:04:13;;;;;;;17.05;8.10;;;;;;;;;;4995823;28;20057;-27
2022/12/03 02:06:39;;;;;;;17.20;8.25;;;;;;;;;;4995988;28;20425;-27
2022/12/03 02:09:07;;;;;;;12.95;6.30;;;;;;;;;;4995956;28;20040;-27
2022/12/03 02:11:36;;;;;;;14.93;7.90;;;;;;;;;;4995879;28;20451;-28
2022/12/03 02:14:11;;;;;;;15.27;9.27;;;;;;;;;;4995714;28;20042;-27
2022/12/03 02:16:39;;;;;;;18.73;7.88;;;;;;;;;;4995445;28;20141;-27
2022/12/03 02:19:08;;;;;;;20.23;8.30;;;;;;;;;;4995567;28;20038;-27
2022/12/03 02:21:42;;;;;;;17.85;8.10;;;;;;;;;;4995458;28;20018;-27
2022/12/03 02:24:14;;;;;;;17.08;8.10;;;;;;;;;;4995438;28;20113;-27
2022/12/03 02:26:40;;;;;;;14.60;7.72;;;;;;;;;;4995675;28;20335;-27
2022/12/03 02:29:07;;;;;;;12.55;6.90;;;;;;;;;;4995926;28;20461;-27
2022/12/03 02:31:33;;;;;;;16.27;7.80;;;;;;;;;;4994617;28;20038;-27
2022/12/03 02:33:59;;;;;;;13.25;7.30;;;;;;;;;;4995166;28;20113;-27
2022/12/03 02:36:25;;;;;;;16.42;7.57;;;;;;;;;;4995299;28;20096;-27
2022/12/03 02:38:52;;;;;;;13.98;8.25;;;;;;;;;;4995319;28;20025;-27
2022/12/03 02:44:05;;;;;;;14.60;7.82;;;;;;;;;;4995473;28;20072;-27
2022/12/03 02:46:32;;;;;;;9.00;7.18;;;;;;;;;;4995633;28;20050;-27
2022/12/03 02:48:58;;;;;;;16.17;8.25;;;;;;;;;;4995238;28;20034;-27
2022/12/03 02:51:25;;;;;;;9.80;7.30;;;;;;;;;;4995150;28;20030;-27
2022/12/03 02:53:52;;;;;;;22.35;8.40;;;;;;;;;;4995275;28;20042;-27
2022/12/03 02:56:20;;;;;;;14.10;8.02;;;;;;;;;;4995142;28;20033;-27
2022/12/03 02:58:48;;;;;;;10.95;7.40;;;;;;;;;;4995357;28;20018;-27
2022/12/03 03:01:15;;;;;;;16.25;7.80;;;;;;;;;;4995030;28;20027;-27
2022/12/03 03:03:42;;;;;;;8.80;7.03;;;;;;;;;;4994963;28;20441;-27
2022/12/03 03:06:09;;;;;;;13.27;7.60;;;;;;;;;;4995086;28;20369;-27
2022/12/03 03:08:36;;;;;;;13.65;7.25;;;;;;;;;;4995238;28;20034;-27
2022/12/03 03:11:03;;;;;;;14.57;6.55;;;;;;;;;;4996084;28;20429;-27
2022/12/03 03:13:30;;;;;;;13.40;7.97;;;;;;;;;;4995114;28;20429;-27
2022/12/03 03:15:56;;;;;;;13.85;8.07;;;;;;;;;;4994902;28;20040;-27
2022/12/03 03:18:23;;;;;;;16.88;7.13;;;;;;;;;;4995188;28;20116;-27
2022/12/03 03:20:49;;;;;;;10.85;7.60;;;;;;;;;;4994873;28;20084;-27
2022/12/03 03:23:16;;;;;;;12.32;7.97;;;;;;;;;;4994816;28;20048;-27
2022/12/03 03:25:47;;;;;;;11.13;7.40;;;;;;;;;;4994825;28;20053;-27
2022/12/03 03:28:14;;;;;;;13.48;7.50;;;;;;;;;;4995119;28;20109;-27
2022/12/03 03:30:41;;;;;;;18.27;8.18;;;;;;;;;;4994764;28;20037;-27
2022/12/03 03:33:07;;;;;;;14.18;6.70;;;;;;;;;;4994924;28;20042;-27
2022/12/03 03:35:34;;;;;;;16.20;7.45;;;;;;;;;;4995037;28;20413;-27
2022/12/03 03:38:00;;;;;;;11.07;8.18;;;;;;;;;;4994756;28;20030;-27
2022/12/03 03:40:26;;;;;;;11.27;7.38;;;;;;;;;;4994724;28;20449;-27
2022/12/03 03:42:52;;;;;;;15.35;8.05;;;;;;;;;;4996938;28;20113;-27
2022/12/03 03:45:19;;;;;;;10.88;7.85;;;;;;;;;;4998324;28;20030;-27
2022/12/03 03:47:46;;;;;;;12.07;7.15;;;;;;;;;;4998326;28;20030;-27
2022/12/03 03:50:12;;;;;;;11.27;7.45;;;;;;;;;;4998232;28;20080;-27
2022/12/03 03:52:39;;;;;;;18.73;8.40;;;;;;;;;;4998135;28;20019;-27
2022/12/03 03:55:06;;;;;;;13.65;8.07;;;;;;;;;;4998377;28;20089;-27
2022/12/03 03:57:33;;;;;;;15.30;8.82;;;;;;;;;;4998922;28;20027;-27
2022/12/03 03:59:59;;;;;;;10.20;7.38;;;;;;;;;;4998357;28;20019;-27
2022/12/03 04:02:26;;;;;;;13.95;7.00;;;;;;;;;;4997921;28;20041;-27
2022/12/03 04:04:53;;;;;;;16.20;7.93;;;;;;;;;;4997827;28;20050;-27
2022/12/03 04:07:19;;;;;;;12.57;7.70;;;;;;;;;;4996999;28;20042;-27
2022/12/03 04:09:45;;;;;;;10.00;7.13;;;;;;;;;;4998166;28;20037;-27
2022/12/03 04:14:57;;;;;;;14.60;7.80;;;;;;;;;;4997816;28;20065;-27
2022/12/03 04:17:23;;;;;;;12.60;6.45;;;;;;;;;;4998042;28;20148;-27
2022/12/03 04:19:49;;;;;;;15.18;8.00;;;;;;;;;;4998017;28;20098;-27
2022/12/03 04:30:29;;;;;;;14.98;7.75;;;;;;;;;;4997854;28;20041;-27
2022/12/03 04:35:43;;;;;;;12.10;6.78;;;;;;;;;;4997477;28;20037;-27
2022/12/03 04:38:10;;;;;;;12.88;7.28;;;;;;;;;;4997414;28;20103;-27
2022/12/03 04:41:21;;;;;;;10.10;7.55;;;;;;;;;;4997637;28;20034;-27
2022/12/03 04:43:23;;;;;;;12.77;7.90;;;;;;;;;;4987068;28;20093;-27
2022/12/03 04:45:49;;;;;;;11.60;7.47;;;;;;;;;;4997512;28;20444;-27
2022/12/03 04:48:15;;;;;;;11.25;7.80;;;;;;;;;;4997757;28;20026;-27
2022/12/03 04:50:42;;;;;;;8.65;7.40;;;;;;;;;;4997711;28;20105;-27
2022/12/03 04:53:08;;;;;;;19.23;7.32;;;;;;;;;;4996506;28;20027;-27
2022/12/03 04:55:34;;;;;;;10.15;6.95;;;;;;;;;;4996789;28;20018;-27
2022/12/03 04:58:00;;;;;;;10.60;8.90;;;;;;;;;;4997060;28;20027;-27
2022/12/03 05:00:27;;;;;;;10.07;6.88;;;;;;;;;;4996989;28;20054;-27
2022/12/03 05:02:53;;;;;;;9.45;7.18;;;;;;;;;;4997203;28;20124;-27
2022/12/03 05:05:19;;;;;;;13.50;7.97;;;;;;;;;;4996901;28;20030;-27
2022/12/03 05:07:45;;;;;;;11.35;7.40;;;;;;;;;;4997013;28;20327;-27
2022/12/03 05:10:11;;;;;;;15.88;7.80;;;;;;;;;;4996753;28;20069;-27
2022/12/03 05:12:38;;;;;;;12.38;7.65;;;;;;;;;;4996621;28;20027;-27
2022/12/03 05:15:05;;;;;;;11.13;7.18;;;;;;;;;;4996579;28;20105;-27
2022/12/03 05:17:31;;;;;;;19.23;7.28;;;;;;;;;;4996874;28;20030;-27
2022/12/03 05:22:42;;;;;;;8.93;7.40;;;;;;;;;;4996330;28;20061;-27
2022/12/03 05:25:09;;;;;;;14.00;9.02;;;;;;;;;;4996586;28;20397;-27
2022/12/03 05:27:35;;;;;;;13.18;8.65;;;;;;;;;;4996825;28;20358;-27
2022/12/03 05:30:01;;;;;;;8.35;6.60;;;;;;;;;;4996812;28;20031;-27
2022/12/03 05:32:27;;;;;;;12.15;7.70;;;;;;;;;;4996423;28;20065;-27
2022/12/03 05:34:53;;;;;;;9.57;6.85;;;;;;;;;;4996044;28;20113;-27
2022/12/03 05:37:19;;;;;;;8.95;6.43;;;;;;;;;;4996100;28;20030;-27
2022/12/03 05:39:46;;;;;;;9.57;7.57;;;;;;;;;;4996302;28;20023;-27
2022/12/03 05:44:56;;;;;;;9.73;7.57;;;;;;;;;;4995999;28;20608;-27
2022/12/03 05:47:23;;;;;;;13.27;7.00;;;;;;;;;;4996173;28;20035;-27
2022/12/03 05:49:49;;;;;;;9.93;6.50;;;;;;;;;;4995884;28;20030;-27
2022/12/03 05:52:15;;;;;;;11.73;7.43;;;;;;;;;;4995670;28;20052;-27
2022/12/03 05:54:41;;;;;;;12.65;7.60;;;;;;;;;;4995948;28;20034;-27
2022/12/03 05:57:07;;;;;;;13.43;7.30;;;;;;;;;;4995765;28;20045;-27
2022/12/03 05:59:33;;;;;;;12.77;8.02;;;;;;;;;;4995702;28;20042;-27
2022/12/03 06:01:59;;;;;;;12.65;6.93;;;;;;;;;;4995887;28;20041;-26
2022/12/03 06:04:26;;;;;;;9.63;7.30;;;;;;;;;;4995492;28;20385;-27
2022/12/03 06:06:52;;;;;;;14.48;7.60;;;;;;;;;;4995537;28;20033;-27
2022/12/03 06:09:18;;;;;;;12.77;7.53;;;;;;;;;;4995566;28;20427;-27
2022/12/03 06:11:44;;;;;;;11.32;7.43;;;;;;;;;;4995489;28;20038;-27
2022/12/03 06:14:10;;;;;;;13.57;7.25;;;;;;;;;;4995607;28;20164;-27
2022/12/03 06:16:36;;;;;;;13.02;7.20;;;;;;;;;;4995428;28;20110;-27
2022/12/03 06:19:03;;;;;;;17.25;7.57;;;;;;;;;;4995430;28;20023;-27
2022/12/03 06:21:29;;;;;;;11.63;7.00;;;;;;;;;;4995865;28;20026;-27
2022/12/03 06:23:55;;;;;;;10.38;6.43;;;;;;;;;;4995239;28;20446;-27
2022/12/03 06:26:21;;;;;;;14.23;7.38;;;;;;;;;;4995485;28;20112;-27
2022/12/03 06:28:48;;;;;;;8.68;6.57;;;;;;;;;;4996011;28;20062;-26
2022/12/03 06:31:14;;;;;;;14.50;6.75;;;;;;;;;;4995126;28;20484;-27
2022/12/03 06:33:40;;;;;;;10.40;6.68;;;;;;;;;;4995028;28;20026;-27
2022/12/03 06:36:06;;;;;;;12.52;7.13;;;;;;;;;;4995059;28;20026;-27
2022/12/03 06:38:33;;;;;;;10.07;6.53;;;;;;;;;;4994981;28;20512;-27
2022/12/03 06:40:59;;;;;;;13.43;7.30;;;;;;;;;;4995307;28;20026;-27
2022/12/03 06:43:25;;;;;;;15.05;7.63;;;;;;;;;;4994978;28;20034;-27
2022/12/03 06:45:51;;;;;;;14.73;6.88;;;;;;;;;;4995059;28;20522;-27
2022/12/03 06:48:18;;;;;;;11.02;6.80;;;;;;;;;;4994989;28;20022;-27
2022/12/03 06:50:44;;;;;;;13.10;6.57;;;;;;;;;;4995179;28;20427;-27
2022/12/03 06:53:10;;;;;;;11.05;6.22;;;;;;;;;;4994955;28;20030;-27
2022/12/03 06:55:36;;;;;;;9.45;7.22;;;;;;;;;;4994810;28;20026;-27
2022/12/03 06:58:02;;;;;;;12.93;7.32;;;;;;;;;;4994934;28;20022;-27
2022/12/03 07:00:28;;;;;;;14.90;6.53;;;;;;;;;;4994981;28;20058;-27
2022/12/03 07:02:54;;;;;;;10.77;7.20;;;;;;;;;;4995057;28;20033;-27
2022/12/03 07:05:21;;;;;;;12.25;7.03;;;;;;;;;;4995285;28;20038;-27
2022/12/03 07:07:51;;;;;;;14.77;7.88;;;;;;;;;;4994908;28;20192;-27
2022/12/03 07:10:20;;;;;;;13.18;6.88;;;;;;;;;;4995476;28;20353;-27
2022/12/03 07:12:46;;;;;;;13.15;6.90;;;;;;;;;;4995349;28;20030;-27
2022/12/03 07:15:12;;;;;;;11.95;7.18;;;;;;;;;;4995332;28;20027;-27
2022/12/03 07:17:38;;;;;;;11.82;7.28;;;;;;;;;;4996840;28;20046;-27
2022/12/03 07:20:05;;;;;;;11.65;7.72;;;;;;;;;;4998698;28;20044;-27
2022/12/03 07:22:31;;;;;;;13.20;6.90;;;;;;;;;;4998913;28;20022;-27
2022/12/03 07:24:57;;;;;;;11.25;7.22;;;;;;;;;;4999073;28;20030;-27
2022/12/03 07:27:23;;;;;;;15.73;8.10;;;;;;;;;;4998677;28;20035;-27
2022/12/03 07:29:50;;;;;;;12.10;6.72;;;;;;;;;;4998375;28;20038;-27
2022/12/03 07:32:16;;;;;;;11.95;6.78;;;;;;;;;;4998651;28;20041;-28
2022/12/03 07:34:42;;;;;;;13.10;6.88;;;;;;;;;;4998147;28;20453;-27
2022/12/03 07:37:08;;;;;;;8.85;6.78;;;;;;;;;;4998219;28;20030;-28
2022/12/03 07:39:34;;;;;;;21.83;8.68;;;;;;;;;;4998700;28;20037;-27
2022/12/03 07:42:01;;;;;;;11.43;6.93;;;;;;;;;;4998100;28;20094;-27
2022/12/03 07:44:27;;;;;;;17.08;7.93;;;;;;;;;;4998108;28;20030;-27
2022/12/03 07:46:53;;;;;;;17.98;7.78;;;;;;;;;;4996872;28;20042;-27
2022/12/03 07:49:19;;;;;;;15.10;6.85;;;;;;;;;;4997791;28;20496;-27
2022/12/03 07:51:52;;;;;;;14.27;7.22;;;;;;;;;;4997746;28;20026;-27
2022/12/03 07:54:19;;;;;;;14.10;6.75;;;;;;;;;;4997719;28;20041;-28
2022/12/03 07:56:47;;;;;;;16.55;7.70;;;;;;;;;;4997595;28;20027;-27
2022/12/03 07:59:13;;;;;;;14.65;7.57;;;;;;;;;;4997563;28;20259;-27
2022/12/03 08:01:39;;;;;;;15.48;7.25;;;;;;;;;;4997666;28;20080;-27
2022/12/03 08:04:05;;;;;;;14.00;6.40;;;;;;;;;;4997295;28;20078;-27
2022/12/03 08:06:32;;;;;;;14.93;7.35;;;;;;;;;;4997523;28;20030;-28
2022/12/03 08:08:58;;;;;;;14.52;6.00;;;;;;;;;;4997778;28;20053;-27
2022/12/03 08:11:24;;;;;;;12.23;6.85;;;;;;;;;;4997414;28;20168;-28
2022/12/03 08:13:50;;;;;;;13.10;7.50;;;;;;;;;;4997307;28;20034;-27
2022/12/03 08:16:18;;;;;;;11.38;6.72;;;;;;;;;;4997213;28;20113;-27
2022/12/03 08:18:44;;;;;;;20.63;7.20;;;;;;;;;;4997598;28;20030;-28
2022/12/03 08:21:11;;;;;;;9.45;6.63;;;;;;;;;;4997545;28;20041;-28
2022/12/03 08:23:37;;;;;;;13.85;6.93;;;;;;;;;;4997253;28;20104;-28
2022/12/03 08:26:06;;;;;;;8.45;7.13;;;;;;;;;;4997372;28;20052;-27
2022/12/03 08:28:32;;;;;;;9.25;6.28;;;;;;;;;;4995914;28;20062;-28
2022/12/03 08:31:01;;;;;;;11.18;7.97;;;;;;;;;;4997173;28;20109;-27
2022/12/03 08:33:32;;;;;;;16.40;6.82;;;;;;;;;;4996819;28;20026;-27
2022/12/03 08:35:58;;;;;;;15.38;7.50;;;;;;;;;;4996918;28;20033;-27
2022/12/03 08:38:24;;;;;;;13.73;8.23;;;;;;;;;;4996735;28;20048;-27
2022/12/03 08:40:54;;;;;;;13.70;7.47;;;;;;;;;;4997182;28;20022;-27
2022/12/03 08:43:25;;;;;;;13.75;8.05;;;;;;;;;;4996422;28;20093;-27
2022/12/03 08:45:51;;;;;;;;;;;;;;;;;;4996992;28;20035;-27
2022/12/03 08:48:35;;;;;;;14.82;6.70;;;;;;;;;;4996616;28;19913;-26
2022/12/03 08:51:21;;;;;;;12.45;7.28;;;;;;;;;;4996567;28;20065;-26
2022/12/03 08:53:48;;;;;;;9.13;7.00;;;;;;;;;;4996534;28;20105;-27
2022/12/03 08:56:26;;;;;;;15.90;7.30;;;;;;;;;;4996882;28;20027;-26
2022/12/03 08:59:00;;;;;;;13.85;7.32;;;;;;;;;;4996734;28;20045;-27
2022/12/03 09:01:38;;;;;;;13.93;7.38;;;;;;;;;;4996535;28;20045;-27
2022/12/03 09:04:13;;;;;;;12.32;6.88;;;;;;;;;;4996324;28;20385;-27
2022/12/03 09:06:39;;;;;;;12.52;6.80;;;;;;;;;;4996209;28;20108;-26
2022/12/03 09:09:05;;;;;;;10.10;6.30;;;;;;;;;;4996410;28;20417;-26
2022/12/03 09:11:31;;;;;;;20.38;7.22;;;;;;;;;;4996089;28;20023;-27
2022/12/03 09:13:57;;;;;;;14.52;6.68;;;;;;;;;;4996276;28;20023;-26
2022/12/03 09:16:23;;;;;;;15.50;7.05;;;;;;;;;;4996599;28;20034;-26
2022/12/03 09:18:50;;;;;;;11.80;6.78;;;;;;;;;;4996189;28;20053;-27
2022/12/03 09:21:16;;;;;;;15.63;6.78;;;;;;;;;;4996350;28;20505;-27
2022/12/03 09:23:42;;;;;;;13.13;8.13;;;;;;;;;;4995871;28;20369;-26
2022/12/03 09:26:08;;;;;;;13.73;6.78;;;;;;;;;;4996099;28;20450;-27
2022/12/03 09:28:34;;;;;;;13.50;7.45;;;;;;;;;;4995905;28;20415;-27
2022/12/03 09:31:00;;;;;;;10.90;6.25;;;;;;;;;;4995957;28;20054;-27
2022/12/03 09:33:27;;;;;;;24.02;7.00;;;;;;;;;;4995487;28;20453;-27
2022/12/03 09:35:53;;;;;;;17.05;7.35;;;;;;;;;;4995915;28;20212;-27
2022/12/03 09:38:19;;;;;;;16.55;8.05;;;;;;;;;;4995756;28;20026;-27
2022/12/03 09:40:45;;;;;;;13.07;7.35;;;;;;;;;;4995449;28;20026;-26
2022/12/03 09:43:11;;;;;;;15.38;8.13;;;;;;;;;;4996223;28;20477;-27
2022/12/03 09:45:38;;;;;;;13.35;7.63;;;;;;;;;;4996261;28;20420;-27
2022/12/03 09:48:04;;;;;;;18.05;7.00;;;;;;;;;;4995948;28;20038;-27
2022/12/03 09:50:31;;;;;;;14.13;7.53;;;;;;;;;;4995567;28;20031;-26
2022/12/03 09:52:59;;;;;;;13.80;6.40;;;;;;;;;;4995811;28;20031;-27
2022/12/03 09:55:27;;;;;;;21.17;8.82;;;;;;;;;;4995977;28;20034;-26
2022/12/03 09:57:53;;;;;;;14.45;6.35;;;;;;;;;;4995721;28;20023;-27
2022/12/03 10:00:24;;;;;;;16.77;7.53;;;;;;;;;;4995673;28;20066;-27
2022/12/03 10:02:52;;;;;;;9.95;6.88;;;;;;;;;;4995652;28;20096;-27
2022/12/03 10:05:19;;;;;;;10.68;5.93;;;;;;;;;;4995942;28;20044;-27
2022/12/03 10:07:45;;;;;;;13.15;6.53;;;;;;;;;;4995569;28;20069;-27
2022/12/03 10:10:19;;;;;;;17.40;7.72;;;;;;;;;;4995526;28;20038;-27
2022/12/03 10:12:45;;;;;;;9.82;6.85;;;;;;;;;;4995822;28;20036;-27
2022/12/03 10:15:12;;;;;;;12.98;6.95;;;;;;;;;;4995437;28;20073;-27
2022/12/03 10:17:39;;;;;;;12.10;7.38;;;;;;;;;;4995467;28;20089;-27
2022/12/03 10:20:06;;;;;;;13.25;7.43;;;;;;;;;;4995447;28;20034;-25
2022/12/03 10:22:36;;;;;;;16.15;7.78;;;;;;;;;;4995736;28;20150;-27
2022/12/03 10:25:14;;;;;;;11.65;7.15;;;;;;;;;;4995074;28;20034;-27
2022/12/03 10:27:41;;;;;;;16.95;7.47;;;;;;;;;;4995248;28;20092;-27
2022/12/03 10:30:22;;;;;;;11.90;6.95;;;;;;;;;;4994863;28;20054;-27
2022/12/03 10:32:50;;;;;;;12.30;7.40;;;;;;;;;;4995188;28;20030;-27
2022/12/03 10:35:20;;;;;;;18.58;7.80;;;;;;;;;;4995053;28;20058;-27
2022/12/03 10:38:13;;;;;;;16.73;6.50;;;;;;;;;;4994865;28;20113;-27
2022/12/03 10:40:39;;;;;;;13.32;6.35;;;;;;;;;;4991521;28;20061;-27
2022/12/03 10:43:13;;;;;;;10.85;7.40;;;;;;;;;;4994944;28;20030;-27
2022/12/03 10:45:39;;;;;;;9.73;6.07;;;;;;;;;;4995428;28;20504;-27
2022/12/03 10:48:13;;;;;;;15.05;6.55;;;;;;;;;;4994767;28;20023;-27
2022/12/03 10:50:53;;;;;;;14.07;7.55;;;;;;;;;;4995247;28;20030;-27
2022/12/03 10:53:20;;;;;;;11.82;6.13;;;;;;;;;;4994444;28;20096;-27
2022/12/03 10:55:47;;;;;;;15.50;6.18;;;;;;;;;;4993689;28;20381;-27
2022/12/03 10:58:18;;;;;;;14.27;6.63;;;;;;;;;;4994971;28;20029;-27
2022/12/03 11:00:44;;;;;;;9.13;6.10;;;;;;;;;;4995055;28;20022;-27
2022/12/03 11:03:18;;;;;;;13.32;6.80;;;;;;;;;;4994333;28;20446;-27
2022/12/03 11:05:44;;;;;;;12.50;7.20;;;;;;;;;;4994899;28;20030;-27
2022/12/03 11:08:21;;;;;;;14.75;7.32;;;;;;;;;;4994888;28;20022;-27
2022/12/03 11:10:56;;;;;;;14.85;6.75;;;;;;;;;;4994548;28;20430;-27
2022/12/03 11:13:43;;;;;;;12.75;6.57;;;;;;;;;;4994231;28;20026;-27
2022/12/03 11:16:10;;;;;;;10.98;6.63;;;;;;;;;;4995367;28;20403;-27
2022/12/03 11:18:36;;;;;;;8.55;6.30;;;;;;;;;;4994578;28;20030;-27
2022/12/03 11:21:02;;;;;;;14.30;7.47;;;;;;;;;;4994615;28;20057;-27
2022/12/03 11:23:43;;;;;;;16.05;6.75;;;;;;;;;;4994558;28;20030;-27
2022/12/03 11:26:17;;;;;;;9.77;7.60;;;;;;;;;;4994321;28;20042;-27
2022/12/03 11:28:46;;;;;;;15.23;7.00;;;;;;;;;;4994831;28;20042;-26
2022/12/03 11:31:31;;;;;;;17.17;6.40;;;;;;;;;;4994317;28;20038;-26
2022/12/03 11:34:16;;;;;;;15.32;6.40;;;;;;;;;;4994319;28;20026;-26
2022/12/03 11:37:01;;;;;;;14.65;7.25;;;;;;;;;;4994522;28;20046;-27
2022/12/03 11:39:45;;;;;;;19.33;8.30;;;;;;;;;;4994227;28;20034;-27
2022/12/03 11:42:29;;;;;;;11.50;7.47;;;;;;;;;;4994119;28;20033;-26
2022/12/03 11:45:16;;;;;;;22.80;7.20;;;;;;;;;;4994463;28;20373;-26
2022/12/03 11:47:43;;;;;;;14.40;7.70;;;;;;;;;;4994120;28;20105;-26
2022/12/03 11:50:28;;;;;;;13.82;6.68;;;;;;;;;;4994075;28;20035;-27
2022/12/03 11:52:56;;;;;;;13.80;7.03;;;;;;;;;;4993885;28;20093;-27
2022/12/03 11:55:30;;;;;;;15.65;5.97;;;;;;;;;;4993806;28;20054;-27
2022/12/03 11:58:00;;;;;;;15.43;6.82;;;;;;;;;;4993708;28;20094;-27
2022/12/03 12:00:26;;;;;;;15.85;7.32;;;;;;;;;;4993870;28;20037;-27
2022/12/03 12:02:54;;;;;;;11.80;7.05;;;;;;;;;;4994633;28;20114;-26
2022/12/03 12:05:22;;;;;;;10.82;6.60;;;;;;;;;;4997351;28;20066;-26
2022/12/03 12:07:49;;;;;;;15.50;7.60;;;;;;;;;;4997544;28;20035;-26
2022/12/03 12:10:33;;;;;;;14.02;6.55;;;;;;;;;;4997563;28;20057;-27
2022/12/03 12:13:00;;;;;;;14.52;6.55;;;;;;;;;;4997108;28;20042;-26
2022/12/03 12:15:38;;;;;;;12.13;6.88;;;;;;;;;;4997232;28;20454;-26
2022/12/03 12:18:23;;;;;;;14.43;6.60;;;;;;;;;;4997497;28;20023;-26
2022/12/03 12:20:49;;;;;;;16.15;7.35;;;;;;;;;;4997066;28;20092;-27
2022/12/03 12:23:22;;;;;;;14.90;6.80;;;;;;;;;;4996739;28;20026;-27
2022/12/03 12:25:48;;;;;;;16.77;6.47;;;;;;;;;;4996719;28;20022;-27
2022/12/03 12:28:15;;;;;;;16.17;7.30;;;;;;;;;;4997230;28;20065;-26
2022/12/03 12:30:41;;;;;;;14.55;7.82;;;;;;;;;;4996926;28;20035;-27
2022/12/03 12:33:10;;;;;;;13.13;6.68;;;;;;;;;;4996785;28;20033;-27
2022/12/03 12:35:36;;;;;;;13.52;6.88;;;;;;;;;;4997322;28;20030;-27
2022/12/03 12:38:11;;;;;;;13.75;6.28;;;;;;;;;;4996994;28;20032;-26
2022/12/03 12:40:38;;;;;;;14.88;7.97;;;;;;;;;;4997133;28;20073;-26
2022/12/03 12:43:10;;;;;;;15.10;7.63;;;;;;;;;;4996453;28;20096;-27
2022/12/03 12:45:37;;;;;;;14.60;7.57;;;;;;;;;;4996794;28;20073;-26
2022/12/03 12:48:10;;;;;;;15.05;8.40;;;;;;;;;;4996892;28;20030;-26
2022/12/03 12:50:37;;;;;;;15.60;6.82;;;;;;;;;;4996671;28;20058;-27
2022/12/03 12:53:25;;;;;;;11.63;6.70;;;;;;;;;;4996706;28;20030;-27
2022/12/03 12:55:56;;;;;;;16.10;6.68;;;;;;;;;;4996772;28;20097;-26
2022/12/03 12:58:22;;;;;;;10.55;6.40;;;;;;;;;;4996538;28;20037;-26
2022/12/03 13:00:51;;;;;;;15.45;6.65;;;;;;;;;;4996732;28;20561;-26
2022/12/03 13:03:18;;;;;;;12.10;6.97;;;;;;;;;;4996013;28;20054;-26
2022/12/03 13:05:46;;;;;;;18.58;7.60;;;;;;;;;;4996290;28;20089;-26
2022/12/03 13:08:23;;;;;;;22.48;7.80;;;;;;;;;;4996063;28;20453;-26
2022/12/03 13:10:50;;;;;;;13.25;7.15;;;;;;;;;;4995134;28;20038;-26
2022/12/03 13:13:34;;;;;;;14.93;6.65;;;;;;;;;;4996524;28;20030;-26
2022/12/03 13:16:05;;;;;;;15.45;7.07;;;;;;;;;;4995496;28;20060;-26
2022/12/03 13:18:53;;;;;;;14.90;7.05;;;;;;;;;;4995845;28;20028;-27
2022/12/03 13:21:21;;;;;;;17.60;5.97;;;;;;;;;;4996047;28;20088;-27
2022/12/03 13:23:48;;;;;;;11.25;6.53;;;;;;;;;;4996120;28;20050;-27
2022/12/03 13:26:19;;;;;;;14.15;7.82;;;;;;;;;;4996105;28;20046;-27
2022/12/03 13:28:46;;;;;;;22.05;6.63;;;;;;;;;;4996150;28;20034;-27
2022/12/03 13:31:20;;;;;;;14.13;7.85;;;;;;;;;;4995852;28;20167;-27
2022/12/03 13:33:47;;;;;;;16.23;7.32;;;;;;;;;;4995591;28;20029;-26
2022/12/03 13:36:14;;;;;;;16.98;6.75;;;;;;;;;;4995718;28;20028;-27
2022/12/03 13:38:40;;;;;;;13.48;7.72;;;;;;;;;;4995789;28;20026;-27
2022/12/03 13:42:37;;;;;;;10.48;5.60;;;;;;;;;;4995524;28;20524;-27
2022/12/03 13:43:54;;;;;;;16.52;7.32;;;;;;;;;;4995807;28;20047;-27
2022/12/03 13:46:20;;;;;;;12.70;6.50;;;;;;;;;;4995579;28;20030;-27
2022/12/03 13:48:47;;;;;;;9.45;6.53;;;;;;;;;;4995693;28;20063;-27
2022/12/03 13:51:24;;;;;;;17.92;6.47;;;;;;;;;;4995900;28;20026;-27
2022/12/03 13:53:50;;;;;;;14.45;6.97;;;;;;;;;;4995968;28;20026;-27
2022/12/03 13:56:27;;;;;;;11.65;6.65;;;;;;;;;;4996297;28;20318;-27
2022/12/03 13:58:54;;;;;;;14.60;6.88;;;;;;;;;;4996295;28;20372;-27
2022/12/03 14:01:21;;;;;;;18.23;7.45;;;;;;;;;;4996228;28;20108;-27
2022/12/03 14:03:47;;;;;;;9.40;5.65;;;;;;;;;;4995629;28;20507;-27
2022/12/03 14:06:13;;;;;;;9.43;6.50;;;;;;;;;;4996370;28;20030;-27
2022/12/03 14:08:39;;;;;;;17.75;6.72;;;;;;;;;;4995820;28;20030;-27
2022/12/03 14:11:06;;;;;;;15.98;7.97;;;;;;;;;;4996551;28;20038;-27
2022/12/03 14:13:32;;;;;;;11.15;5.85;;;;;;;;;;4995823;28;20039;-27
2022/12/03 14:15:59;;;;;;;15.13;6.72;;;;;;;;;;4995726;28;20094;-27
2022/12/03 14:18:25;;;;;;;12.15;6.93;;;;;;;;;;4995640;28;20114;-27
2022/12/03 14:20:51;;;;;;;14.65;6.40;;;;;;;;;;4995680;28;20397;-27
2022/12/03 14:23:18;;;;;;;18.25;7.57;;;;;;;;;;4995742;28;20026;-27
2022/12/03 14:25:44;;;;;;;14.02;6.63;;;;;;;;;;4995770;28;20034;-27
2022/12/03 14:28:10;;;;;;;12.73;6.63;;;;;;;;;;4994929;28;20058;-27
2022/12/03 14:30:36;;;;;;;11.20;6.30;;;;;;;;;;4995472;28;20076;-27
2022/12/03 14:33:02;;;;;;;13.93;6.97;;;;;;;;;;4995400;28;20014;-27
2022/12/03 14:35:28;;;;;;;12.35;6.10;;;;;;;;;;4995340;28;20113;-27
2022/12/03 14:37:55;;;;;;;17.80;6.70;;;;;;;;;;4995895;28;20152;-27
2022/12/03 14:40:21;;;;;;;18.08;7.22;;;;;;;;;;4995350;28;20027;-27
2022/12/03 14:42:47;;;;;;;12.77;7.55;;;;;;;;;;4995558;28;20109;-27
2022/12/03 14:45:13;;;;;;;19.80;7.13;;;;;;;;;;4995307;28;20041;-27
2022/12/03 14:47:39;;;;;;;14.30;6.47;;;;;;;;;;4995269;28;20435;-27
2022/12/03 14:50:06;;;;;;;15.73;6.40;;;;;;;;;;4994298;28;20048;-26
2022/12/03 14:52:32;;;;;;;16.70;6.15;;;;;;;;;;4994234;28;20049;-27
2022/12/03 14:54:59;;;;;;;9.07;6.55;;;;;;;;;;4995130;28;20030;-26
2022/12/03 14:57:25;;;;;;;15.05;6.25;;;;;;;;;;4995445;28;20331;-27
2022/12/03 14:59:51;;;;;;;14.93;7.47;;;;;;;;;;4995108;28;20026;-27